sensor_id;sensor_type;location;lat;lon;timestamp;P1;durP1;ratioP1;P2;durP2;ratioP2
53871;SDS011;39787;53.174;5.798;2023-07-13T00:00:43;9.63;;;1.87;;
53871;SDS011;39787;53.174;5.798;2023-07-13T00:01:43;7.97;;;2.20;;
53871;SDS011;39787;53.174;5.798;2023-07-13T00:02:44;12.20;;;2.43;;
53871;SDS011;39787;53.174;5.798;2023-07-13T00:03:44;11.57;;;2.17;;
53871;SDS011;39787;53.174;5.798;2023-07-13T00:04:45;12.07;;;1.52;;
53871;SDS011;39787;53.174;5.798;2023-07-13T00:05:46;9.95;;;1.90;;
53871;SDS011;39787;53.174;5.798;2023-07-13T00:06:46;7.97;;;1.40;;
53871;SDS011;39787;53.174;5.798;2023-07-13T00:07:47;13.80;;;2.37;;
53871;SDS011;39787;53.174;5.798;2023-07-13T00:09:49;14.13;;;2.83;;
53871;SDS011;39787;53.174;5.798;2023-07-13T00:10:51;6.87;;;1.50;;
53871;SDS011;39787;53.174;5.798;2023-07-13T00:11:56;5.72;;;1.10;;
53871;SDS011;39787;53.174;5.798;2023-07-13T00:12:57;4.43;;;1.60;;
53871;SDS011;39787;53.174;5.798;2023-07-13T00:13:57;10.70;;;1.80;;
53871;SDS011;39787;53.174;5.798;2023-07-13T00:14:58;4.67;;;1.33;;
53871;SDS011;39787;53.174;5.798;2023-07-13T00:16:02;5.15;;;1.08;;
53871;SDS011;39787;53.174;5.798;2023-07-13T00:17:03;8.88;;;1.58;;
53871;SDS011;39787;53.174;5.798;2023-07-13T00:18:04;5.05;;;1.45;;
53871;SDS011;39787;53.174;5.798;2023-07-13T00:19:04;7.93;;;1.30;;
53871;SDS011;39787;53.174;5.798;2023-07-13T00:20:05;7.85;;;1.40;;
53871;SDS011;39787;53.174;5.798;2023-07-13T00:21:06;5.97;;;1.13;;
53871;SDS011;39787;53.174;5.798;2023-07-13T00:22:07;8.02;;;2.25;;
53871;SDS011;39787;53.174;5.798;2023-07-13T00:23:07;6.20;;;1.10;;
53871;SDS011;39787;53.174;5.798;2023-07-13T00:24:10;6.23;;;1.23;;
53871;SDS011;39787;53.174;5.798;2023-07-13T00:25:12;5.70;;;1.30;;
53871;SDS011;39787;53.174;5.798;2023-07-13T00:26:13;6.00;;;0.98;;
53871;SDS011;39787;53.174;5.798;2023-07-13T00:27:13;6.37;;;1.47;;
53871;SDS011;39787;53.174;5.798;2023-07-13T00:28:14;4.60;;;1.37;;
53871;SDS011;39787;53.174;5.798;2023-07-13T00:29:14;5.00;;;1.00;;
53871;SDS011;39787;53.174;5.798;2023-07-13T00:30:15;5.43;;;1.13;;
53871;SDS011;39787;53.174;5.798;2023-07-13T00:31:16;3.42;;;1.38;;
53871;SDS011;39787;53.174;5.798;2023-07-13T00:32:16;6.33;;;1.03;;
53871;SDS011;39787;53.174;5.798;2023-07-13T00:33:17;3.60;;;1.00;;
53871;SDS011;39787;53.174;5.798;2023-07-13T00:34:17;2.40;;;0.97;;
53871;SDS011;39787;53.174;5.798;2023-07-13T00:35:18;5.70;;;1.10;;
53871;SDS011;39787;53.174;5.798;2023-07-13T00:36:19;5.10;;;1.77;;
53871;SDS011;39787;53.174;5.798;2023-07-13T00:37:19;4.32;;;1.20;;
53871;SDS011;39787;53.174;5.798;2023-07-13T00:38:20;6.07;;;1.27;;
53871;SDS011;39787;53.174;5.798;2023-07-13T00:39:20;2.35;;;0.70;;
53871;SDS011;39787;53.174;5.798;2023-07-13T00:40:21;3.87;;;1.00;;
53871;SDS011;39787;53.174;5.798;2023-07-13T00:41:22;3.63;;;0.77;;
53871;SDS011;39787;53.174;5.798;2023-07-13T00:42:22;4.07;;;1.03;;
53871;SDS011;39787;53.174;5.798;2023-07-13T00:43:25;3.70;;;1.05;;
53871;SDS011;39787;53.174;5.798;2023-07-13T00:44:26;7.68;;;1.27;;
53871;SDS011;39787;53.174;5.798;2023-07-13T00:46:31;6.50;;;1.03;;
53871;SDS011;39787;53.174;5.798;2023-07-13T00:47:33;3.70;;;1.00;;
53871;SDS011;39787;53.174;5.798;2023-07-13T00:48:34;3.90;;;1.03;;
53871;SDS011;39787;53.174;5.798;2023-07-13T00:49:36;5.88;;;1.20;;
53871;SDS011;39787;53.174;5.798;2023-07-13T00:50:37;6.97;;;1.10;;
53871;SDS011;39787;53.174;5.798;2023-07-13T00:51:48;4.05;;;1.10;;
53871;SDS011;39787;53.174;5.798;2023-07-13T00:52:51;2.42;;;0.80;;
53871;SDS011;39787;53.174;5.798;2023-07-13T00:53:56;0.73;;;0.60;;
53871;SDS011;39787;53.174;5.798;2023-07-13T00:54:59;2.80;;;0.70;;
53871;SDS011;39787;53.174;5.798;2023-07-13T00:55:59;3.63;;;1.00;;
53871;SDS011;39787;53.174;5.798;2023-07-13T00:57:02;1.25;;;0.57;;
53871;SDS011;39787;53.174;5.798;2023-07-13T00:58:05;4.07;;;1.10;;
53871;SDS011;39787;53.174;5.798;2023-07-13T00:59:06;6.53;;;1.00;;
53871;SDS011;39787;53.174;5.798;2023-07-13T01:00:10;5.00;;;1.10;;
53871;SDS011;39787;53.174;5.798;2023-07-13T01:02:12;3.08;;;1.10;;
53871;SDS011;39787;53.174;5.798;2023-07-13T01:03:12;2.30;;;0.80;;
53871;SDS011;39787;53.174;5.798;2023-07-13T01:04:13;6.23;;;1.17;;
53871;SDS011;39787;53.174;5.798;2023-07-13T01:05:15;4.53;;;0.60;;
53871;SDS011;39787;53.174;5.798;2023-07-13T01:06:17;3.70;;;1.00;;
53871;SDS011;39787;53.174;5.798;2023-07-13T01:07:18;2.10;;;0.80;;
53871;SDS011;39787;53.174;5.798;2023-07-13T01:08:18;2.53;;;0.70;;
53871;SDS011;39787;53.174;5.798;2023-07-13T01:10:23;3.22;;;0.98;;
53871;SDS011;39787;53.174;5.798;2023-07-13T01:11:24;4.43;;;0.77;;
53871;SDS011;39787;53.174;5.798;2023-07-13T01:12:26;2.33;;;0.75;;
53871;SDS011;39787;53.174;5.798;2023-07-13T01:13:27;2.23;;;0.90;;
53871;SDS011;39787;53.174;5.798;2023-07-13T01:14:27;3.67;;;0.97;;
53871;SDS011;39787;53.174;5.798;2023-07-13T01:16:40;3.45;;;1.05;;
53871;SDS011;39787;53.174;5.798;2023-07-13T01:17:42;6.07;;;1.05;;
53871;SDS011;39787;53.174;5.798;2023-07-13T01:18:42;6.00;;;0.90;;
53871;SDS011;39787;53.174;5.798;2023-07-13T01:19:44;3.03;;;1.07;;
53871;SDS011;39787;53.174;5.798;2023-07-13T01:20:50;3.35;;;0.88;;
53871;SDS011;39787;53.174;5.798;2023-07-13T01:21:58;5.13;;;0.93;;
53871;SDS011;39787;53.174;5.798;2023-07-13T01:22:59;3.30;;;0.70;;
53871;SDS011;39787;53.174;5.798;2023-07-13T01:23:59;2.00;;;0.77;;
53871;SDS011;39787;53.174;5.798;2023-07-13T01:25:00;3.17;;;0.73;;
53871;SDS011;39787;53.174;5.798;2023-07-13T01:26:01;3.85;;;1.08;;
53871;SDS011;39787;53.174;5.798;2023-07-13T01:27:01;2.43;;;1.03;;
53871;SDS011;39787;53.174;5.798;2023-07-13T01:28:03;5.90;;;1.42;;
53871;SDS011;39787;53.174;5.798;2023-07-13T01:29:05;5.22;;;0.90;;
53871;SDS011;39787;53.174;5.798;2023-07-13T01:30:05;3.73;;;0.67;;
53871;SDS011;39787;53.174;5.798;2023-07-13T01:31:06;7.43;;;1.08;;
53871;SDS011;39787;53.174;5.798;2023-07-13T01:32:09;5.85;;;1.15;;
53871;SDS011;39787;53.174;5.798;2023-07-13T01:33:15;2.08;;;0.80;;
53871;SDS011;39787;53.174;5.798;2023-07-13T01:34:17;2.70;;;1.02;;
53871;SDS011;39787;53.174;5.798;2023-07-13T01:35:17;6.57;;;1.43;;
53871;SDS011;39787;53.174;5.798;2023-07-13T01:36:18;6.73;;;1.27;;
53871;SDS011;39787;53.174;5.798;2023-07-13T01:37:18;5.60;;;1.73;;
53871;SDS011;39787;53.174;5.798;2023-07-13T01:38:20;4.37;;;1.13;;
53871;SDS011;39787;53.174;5.798;2023-07-13T01:39:21;3.03;;;0.95;;
53871;SDS011;39787;53.174;5.798;2023-07-13T01:40:22;7.13;;;1.23;;
53871;SDS011;39787;53.174;5.798;2023-07-13T01:41:23;8.57;;;1.40;;
53871;SDS011;39787;53.174;5.798;2023-07-13T01:42:23;7.07;;;1.60;;
53871;SDS011;39787;53.174;5.798;2023-07-13T01:43:24;6.23;;;0.90;;
53871;SDS011;39787;53.174;5.798;2023-07-13T01:44:25;3.60;;;0.98;;
53871;SDS011;39787;53.174;5.798;2023-07-13T01:45:26;7.72;;;1.15;;
53871;SDS011;39787;53.174;5.798;2023-07-13T01:46:26;4.63;;;1.43;;
53871;SDS011;39787;53.174;5.798;2023-07-13T01:47:26;6.67;;;1.43;;
53871;SDS011;39787;53.174;5.798;2023-07-13T01:48:27;5.17;;;1.20;;
53871;SDS011;39787;53.174;5.798;2023-07-13T01:49:27;7.90;;;1.50;;
53871;SDS011;39787;53.174;5.798;2023-07-13T01:50:28;5.33;;;1.37;;
53871;SDS011;39787;53.174;5.798;2023-07-13T01:51:28;4.83;;;1.57;;
53871;SDS011;39787;53.174;5.798;2023-07-13T01:52:29;5.90;;;1.53;;
53871;SDS011;39787;53.174;5.798;2023-07-13T01:53:29;8.40;;;1.43;;
53871;SDS011;39787;53.174;5.798;2023-07-13T01:54:30;4.37;;;1.33;;
53871;SDS011;39787;53.174;5.798;2023-07-13T01:55:30;6.20;;;1.20;;
53871;SDS011;39787;53.174;5.798;2023-07-13T01:56:31;3.35;;;1.02;;
53871;SDS011;39787;53.174;5.798;2023-07-13T01:57:32;13.03;;;1.57;;
53871;SDS011;39787;53.174;5.798;2023-07-13T01:58:32;5.73;;;1.17;;
53871;SDS011;39787;53.174;5.798;2023-07-13T01:59:33;6.80;;;1.90;;
53871;SDS011;39787;53.174;5.798;2023-07-13T02:00:33;7.63;;;1.70;;
53871;SDS011;39787;53.174;5.798;2023-07-13T02:01:34;4.97;;;1.70;;
53871;SDS011;39787;53.174;5.798;2023-07-13T02:02:34;10.87;;;1.67;;
53871;SDS011;39787;53.174;5.798;2023-07-13T02:03:34;7.00;;;1.70;;
53871;SDS011;39787;53.174;5.798;2023-07-13T02:04:35;2.63;;;1.17;;
53871;SDS011;39787;53.174;5.798;2023-07-13T02:05:36;6.13;;;1.40;;
53871;SDS011;39787;53.174;5.798;2023-07-13T02:06:36;15.53;;;1.70;;
53871;SDS011;39787;53.174;5.798;2023-07-13T02:07:37;5.13;;;1.40;;
53871;SDS011;39787;53.174;5.798;2023-07-13T02:08:39;6.05;;;1.52;;
53871;SDS011;39787;53.174;5.798;2023-07-13T02:09:41;8.13;;;1.52;;
53871;SDS011;39787;53.174;5.798;2023-07-13T02:10:41;6.37;;;1.40;;
53871;SDS011;39787;53.174;5.798;2023-07-13T02:11:42;6.83;;;1.80;;
53871;SDS011;39787;53.174;5.798;2023-07-13T02:12:43;7.17;;;1.53;;
53871;SDS011;39787;53.174;5.798;2023-07-13T02:13:44;8.35;;;1.85;;
53871;SDS011;39787;53.174;5.798;2023-07-13T02:14:45;9.77;;;2.77;;
53871;SDS011;39787;53.174;5.798;2023-07-13T02:15:45;11.50;;;1.80;;
53871;SDS011;39787;53.174;5.798;2023-07-13T02:16:46;6.47;;;2.00;;
53871;SDS011;39787;53.174;5.798;2023-07-13T02:17:46;9.27;;;2.00;;
53871;SDS011;39787;53.174;5.798;2023-07-13T02:18:47;9.40;;;2.60;;
53871;SDS011;39787;53.174;5.798;2023-07-13T02:19:47;4.90;;;2.00;;
53871;SDS011;39787;53.174;5.798;2023-07-13T02:20:48;6.50;;;1.60;;
53871;SDS011;39787;53.174;5.798;2023-07-13T02:21:48;14.63;;;2.17;;
53871;SDS011;39787;53.174;5.798;2023-07-13T02:22:49;4.70;;;1.43;;
53871;SDS011;39787;53.174;5.798;2023-07-13T02:23:49;9.13;;;1.70;;
53871;SDS011;39787;53.174;5.798;2023-07-13T02:24:50;5.27;;;2.00;;
53871;SDS011;39787;53.174;5.798;2023-07-13T02:25:54;6.80;;;1.70;;
53871;SDS011;39787;53.174;5.798;2023-07-13T02:26:59;9.63;;;2.28;;
53871;SDS011;39787;53.174;5.798;2023-07-13T02:27:59;8.00;;;1.93;;
53871;SDS011;39787;53.174;5.798;2023-07-13T02:29:00;10.03;;;2.07;;
53871;SDS011;39787;53.174;5.798;2023-07-13T02:30:00;10.27;;;2.27;;
53871;SDS011;39787;53.174;5.798;2023-07-13T02:31:04;11.03;;;2.03;;
53871;SDS011;39787;53.174;5.798;2023-07-13T02:32:06;8.63;;;2.20;;
53871;SDS011;39787;53.174;5.798;2023-07-13T02:33:07;18.48;;;2.47;;
53871;SDS011;39787;53.174;5.798;2023-07-13T02:34:08;9.07;;;1.80;;
53871;SDS011;39787;53.174;5.798;2023-07-13T02:35:08;12.93;;;2.27;;
53871;SDS011;39787;53.174;5.798;2023-07-13T02:36:09;7.87;;;2.23;;
53871;SDS011;39787;53.174;5.798;2023-07-13T02:37:10;9.60;;;2.00;;
53871;SDS011;39787;53.174;5.798;2023-07-13T02:38:11;7.43;;;1.80;;
53871;SDS011;39787;53.174;5.798;2023-07-13T02:39:12;11.23;;;2.37;;
53871;SDS011;39787;53.174;5.798;2023-07-13T02:40:13;8.32;;;2.05;;
53871;SDS011;39787;53.174;5.798;2023-07-13T02:41:13;16.90;;;2.37;;
53871;SDS011;39787;53.174;5.798;2023-07-13T02:42:14;13.63;;;2.50;;
53871;SDS011;39787;53.174;5.798;2023-07-13T02:43:14;12.27;;;2.33;;
53871;SDS011;39787;53.174;5.798;2023-07-13T02:44:15;11.13;;;2.33;;
53871;SDS011;39787;53.174;5.798;2023-07-13T02:45:15;7.23;;;2.07;;
53871;SDS011;39787;53.174;5.798;2023-07-13T02:46:16;11.67;;;2.83;;
53871;SDS011;39787;53.174;5.798;2023-07-13T02:47:16;12.07;;;2.03;;
53871;SDS011;39787;53.174;5.798;2023-07-13T02:48:17;10.97;;;2.37;;
53871;SDS011;39787;53.174;5.798;2023-07-13T02:49:17;13.77;;;2.50;;
53871;SDS011;39787;53.174;5.798;2023-07-13T02:50:18;8.40;;;2.23;;
53871;SDS011;39787;53.174;5.798;2023-07-13T02:51:18;14.67;;;2.40;;
53871;SDS011;39787;53.174;5.798;2023-07-13T02:52:19;14.63;;;2.50;;
53871;SDS011;39787;53.174;5.798;2023-07-13T02:53:20;11.50;;;2.78;;
53871;SDS011;39787;53.174;5.798;2023-07-13T02:54:20;10.17;;;2.40;;
53871;SDS011;39787;53.174;5.798;2023-07-13T02:55:21;15.23;;;2.77;;
53871;SDS011;39787;53.174;5.798;2023-07-13T02:56:23;13.27;;;3.23;;
53871;SDS011;39787;53.174;5.798;2023-07-13T02:57:25;10.40;;;2.60;;
53871;SDS011;39787;53.174;5.798;2023-07-13T02:58:25;10.83;;;2.90;;
53871;SDS011;39787;53.174;5.798;2023-07-13T02:59:26;13.83;;;2.50;;
53871;SDS011;39787;53.174;5.798;2023-07-13T03:00:27;13.73;;;2.57;;
53871;SDS011;39787;53.174;5.798;2023-07-13T03:01:27;16.20;;;3.70;;
53871;SDS011;39787;53.174;5.798;2023-07-13T03:02:28;14.17;;;2.50;;
53871;SDS011;39787;53.174;5.798;2023-07-13T03:03:28;9.97;;;2.60;;
53871;SDS011;39787;53.174;5.798;2023-07-13T03:04:29;9.03;;;2.40;;
53871;SDS011;39787;53.174;5.798;2023-07-13T03:05:30;15.18;;;3.05;;
53871;SDS011;39787;53.174;5.798;2023-07-13T03:06:31;10.07;;;3.10;;
53871;SDS011;39787;53.174;5.798;2023-07-13T03:07:32;17.92;;;3.25;;
53871;SDS011;39787;53.174;5.798;2023-07-13T03:08:33;16.83;;;3.00;;
53871;SDS011;39787;53.174;5.798;2023-07-13T03:09:33;14.23;;;2.83;;
53871;SDS011;39787;53.174;5.798;2023-07-13T03:10:35;15.88;;;3.38;;
53871;SDS011;39787;53.174;5.798;2023-07-13T03:11:35;15.27;;;3.00;;
53871;SDS011;39787;53.174;5.798;2023-07-13T03:12:36;12.27;;;2.80;;
53871;SDS011;39787;53.174;5.798;2023-07-13T03:13:36;19.00;;;3.03;;
53871;SDS011;39787;53.174;5.798;2023-07-13T03:14:38;16.98;;;3.38;;
53871;SDS011;39787;53.174;5.798;2023-07-13T03:15:38;18.77;;;3.33;;
53871;SDS011;39787;53.174;5.798;2023-07-13T03:16:39;19.63;;;2.60;;
53871;SDS011;39787;53.174;5.798;2023-07-13T03:17:39;15.80;;;3.75;;
53871;SDS011;39787;53.174;5.798;2023-07-13T03:18:40;14.23;;;3.20;;
53871;SDS011;39787;53.174;5.798;2023-07-13T03:19:41;18.42;;;3.25;;
53871;SDS011;39787;53.174;5.798;2023-07-13T03:20:41;16.53;;;2.80;;
53871;SDS011;39787;53.174;5.798;2023-07-13T03:21:42;11.63;;;3.33;;
53871;SDS011;39787;53.174;5.798;2023-07-13T03:22:42;8.87;;;2.87;;
53871;SDS011;39787;53.174;5.798;2023-07-13T03:23:43;11.80;;;2.90;;
53871;SDS011;39787;53.174;5.798;2023-07-13T03:24:44;8.90;;;2.47;;
53871;SDS011;39787;53.174;5.798;2023-07-13T03:25:44;12.35;;;2.75;;
53871;SDS011;39787;53.174;5.798;2023-07-13T03:26:45;11.07;;;3.03;;
53871;SDS011;39787;53.174;5.798;2023-07-13T03:27:45;13.90;;;3.93;;
53871;SDS011;39787;53.174;5.798;2023-07-13T03:28:46;10.87;;;4.00;;
53871;SDS011;39787;53.174;5.798;2023-07-13T03:29:46;16.30;;;3.83;;
53871;SDS011;39787;53.174;5.798;2023-07-13T03:30:47;14.03;;;3.60;;
53871;SDS011;39787;53.174;5.798;2023-07-13T03:31:47;10.47;;;2.83;;
53871;SDS011;39787;53.174;5.798;2023-07-13T03:32:48;14.23;;;3.20;;
53871;SDS011;39787;53.174;5.798;2023-07-13T03:33:48;15.03;;;3.53;;
53871;SDS011;39787;53.174;5.798;2023-07-13T03:34:49;8.37;;;2.40;;
53871;SDS011;39787;53.174;5.798;2023-07-13T03:35:49;10.83;;;2.77;;
53871;SDS011;39787;53.174;5.798;2023-07-13T03:36:50;15.07;;;2.73;;
53871;SDS011;39787;53.174;5.798;2023-07-13T03:37:53;12.10;;;3.05;;
53871;SDS011;39787;53.174;5.798;2023-07-13T03:38:55;16.10;;;3.77;;
53871;SDS011;39787;53.174;5.798;2023-07-13T03:39:57;12.25;;;3.65;;
53871;SDS011;39787;53.174;5.798;2023-07-13T03:40:57;11.13;;;2.73;;
53871;SDS011;39787;53.174;5.798;2023-07-13T03:41:58;12.57;;;3.17;;
53871;SDS011;39787;53.174;5.798;2023-07-13T03:42:58;16.90;;;3.67;;
53871;SDS011;39787;53.174;5.798;2023-07-13T03:43:59;14.83;;;2.87;;
53871;SDS011;39787;53.174;5.798;2023-07-13T03:44:59;18.03;;;4.50;;
53871;SDS011;39787;53.174;5.798;2023-07-13T03:46:00;11.80;;;2.95;;
53871;SDS011;39787;53.174;5.798;2023-07-13T03:47:01;10.67;;;3.43;;
53871;SDS011;39787;53.174;5.798;2023-07-13T03:48:01;11.50;;;2.90;;
53871;SDS011;39787;53.174;5.798;2023-07-13T03:49:03;11.30;;;3.17;;
53871;SDS011;39787;53.174;5.798;2023-07-13T03:50:05;12.10;;;3.90;;
53871;SDS011;39787;53.174;5.798;2023-07-13T03:51:05;16.08;;;3.50;;
53871;SDS011;39787;53.174;5.798;2023-07-13T03:52:06;17.47;;;3.90;;
53871;SDS011;39787;53.174;5.798;2023-07-13T03:53:07;9.60;;;3.60;;
53871;SDS011;39787;53.174;5.798;2023-07-13T03:54:07;14.30;;;4.38;;
53871;SDS011;39787;53.174;5.798;2023-07-13T03:55:08;17.37;;;3.83;;
53871;SDS011;39787;53.174;5.798;2023-07-13T03:56:09;11.85;;;2.90;;
53871;SDS011;39787;53.174;5.798;2023-07-13T03:57:10;12.90;;;2.97;;
53871;SDS011;39787;53.174;5.798;2023-07-13T03:58:24;8.97;;;2.90;;
53871;SDS011;39787;53.174;5.798;2023-07-13T03:59:25;13.85;;;2.90;;
53871;SDS011;39787;53.174;5.798;2023-07-13T04:00:25;14.20;;;3.47;;
53871;SDS011;39787;53.174;5.798;2023-07-13T04:01:26;11.07;;;2.87;;
53871;SDS011;39787;53.174;5.798;2023-07-13T04:02:27;12.07;;;2.77;;
53871;SDS011;39787;53.174;5.798;2023-07-13T04:03:27;8.03;;;2.80;;
53871;SDS011;39787;53.174;5.798;2023-07-13T04:04:28;11.57;;;3.05;;
53871;SDS011;39787;53.174;5.798;2023-07-13T04:05:28;12.63;;;3.40;;
53871;SDS011;39787;53.174;5.798;2023-07-13T04:06:29;14.27;;;3.27;;
53871;SDS011;39787;53.174;5.798;2023-07-13T04:07:30;10.98;;;2.83;;
53871;SDS011;39787;53.174;5.798;2023-07-13T04:08:32;8.63;;;2.70;;
53871;SDS011;39787;53.174;5.798;2023-07-13T04:09:34;11.57;;;3.08;;
53871;SDS011;39787;53.174;5.798;2023-07-13T04:10:35;8.75;;;3.75;;
53871;SDS011;39787;53.174;5.798;2023-07-13T04:11:36;11.45;;;2.83;;
53871;SDS011;39787;53.174;5.798;2023-07-13T04:12:36;9.27;;;3.03;;
53871;SDS011;39787;53.174;5.798;2023-07-13T04:13:37;13.70;;;3.20;;
53871;SDS011;39787;53.174;5.798;2023-07-13T04:14:37;11.50;;;2.97;;
53871;SDS011;39787;53.174;5.798;2023-07-13T04:15:38;18.90;;;4.60;;
53871;SDS011;39787;53.174;5.798;2023-07-13T04:16:39;13.48;;;3.78;;
53871;SDS011;39787;53.174;5.798;2023-07-13T04:17:39;10.30;;;2.90;;
53871;SDS011;39787;53.174;5.798;2023-07-13T04:18:40;10.97;;;3.10;;
53871;SDS011;39787;53.174;5.798;2023-07-13T04:19:40;10.87;;;2.87;;
53871;SDS011;39787;53.174;5.798;2023-07-13T04:20:40;15.23;;;3.80;;
53871;SDS011;39787;53.174;5.798;2023-07-13T04:21:41;10.40;;;2.97;;
53871;SDS011;39787;53.174;5.798;2023-07-13T04:22:41;6.00;;;2.20;;
53871;SDS011;39787;53.174;5.798;2023-07-13T04:23:42;8.37;;;3.03;;
53871;SDS011;39787;53.174;5.798;2023-07-13T04:24:43;10.60;;;2.88;;
53871;SDS011;39787;53.174;5.798;2023-07-13T04:25:44;17.63;;;3.50;;
53871;SDS011;39787;53.174;5.798;2023-07-13T04:26:45;9.63;;;3.13;;
53871;SDS011;39787;53.174;5.798;2023-07-13T04:27:46;14.50;;;3.87;;
53871;SDS011;39787;53.174;5.798;2023-07-13T04:28:47;13.30;;;2.83;;
53871;SDS011;39787;53.174;5.798;2023-07-13T04:29:47;15.48;;;3.35;;
53871;SDS011;39787;53.174;5.798;2023-07-13T04:30:48;10.67;;;3.37;;
53871;SDS011;39787;53.174;5.798;2023-07-13T04:31:49;14.13;;;3.13;;
53871;SDS011;39787;53.174;5.798;2023-07-13T04:32:50;13.30;;;3.17;;
53871;SDS011;39787;53.174;5.798;2023-07-13T04:33:52;18.92;;;3.42;;
53871;SDS011;39787;53.174;5.798;2023-07-13T04:34:52;8.27;;;2.57;;
53871;SDS011;39787;53.174;5.798;2023-07-13T04:35:53;13.00;;;3.33;;
53871;SDS011;39787;53.174;5.798;2023-07-13T04:36:54;21.20;;;3.88;;
53871;SDS011;39787;53.174;5.798;2023-07-13T04:37:55;10.37;;;2.77;;
53871;SDS011;39787;53.174;5.798;2023-07-13T04:38:55;12.97;;;3.37;;
53871;SDS011;39787;53.174;5.798;2023-07-13T04:39:56;17.13;;;3.40;;
53871;SDS011;39787;53.174;5.798;2023-07-13T04:40:57;10.33;;;3.27;;
53871;SDS011;39787;53.174;5.798;2023-07-13T04:41:59;15.82;;;3.30;;
53871;SDS011;39787;53.174;5.798;2023-07-13T04:42:59;14.03;;;3.37;;
53871;SDS011;39787;53.174;5.798;2023-07-13T04:44:00;8.67;;;2.70;;
53871;SDS011;39787;53.174;5.798;2023-07-13T04:45:00;7.20;;;2.97;;
53871;SDS011;39787;53.174;5.798;2023-07-13T04:46:05;9.67;;;2.73;;
53871;SDS011;39787;53.174;5.798;2023-07-13T04:47:07;12.57;;;3.40;;
53871;SDS011;39787;53.174;5.798;2023-07-13T04:48:07;14.87;;;3.20;;
53871;SDS011;39787;53.174;5.798;2023-07-13T04:49:08;11.67;;;3.57;;
53871;SDS011;39787;53.174;5.798;2023-07-13T04:50:08;9.20;;;2.73;;
53871;SDS011;39787;53.174;5.798;2023-07-13T04:51:09;17.83;;;3.33;;
53871;SDS011;39787;53.174;5.798;2023-07-13T04:52:10;11.63;;;3.00;;
53871;SDS011;39787;53.174;5.798;2023-07-13T04:53:11;21.88;;;3.85;;
53871;SDS011;39787;53.174;5.798;2023-07-13T04:54:12;17.70;;;3.93;;
53871;SDS011;39787;53.174;5.798;2023-07-13T04:55:12;9.20;;;2.63;;
53871;SDS011;39787;53.174;5.798;2023-07-13T04:56:13;12.40;;;3.47;;
53871;SDS011;39787;53.174;5.798;2023-07-13T04:57:13;14.13;;;3.40;;
53871;SDS011;39787;53.174;5.798;2023-07-13T04:58:14;12.33;;;2.77;;
53871;SDS011;39787;53.174;5.798;2023-07-13T04:59:14;12.83;;;3.03;;
53871;SDS011;39787;53.174;5.798;2023-07-13T05:00:15;11.50;;;3.13;;
53871;SDS011;39787;53.174;5.798;2023-07-13T05:01:15;16.60;;;2.80;;
53871;SDS011;39787;53.174;5.798;2023-07-13T05:02:16;9.60;;;2.43;;
53871;SDS011;39787;53.174;5.798;2023-07-13T05:03:16;15.90;;;3.37;;
53871;SDS011;39787;53.174;5.798;2023-07-13T05:04:17;12.93;;;2.88;;
53871;SDS011;39787;53.174;5.798;2023-07-13T05:05:17;10.30;;;2.73;;
53871;SDS011;39787;53.174;5.798;2023-07-13T05:06:18;10.40;;;3.07;;
53871;SDS011;39787;53.174;5.798;2023-07-13T05:07:18;8.03;;;2.53;;
53871;SDS011;39787;53.174;5.798;2023-07-13T05:08:19;14.87;;;2.73;;
53871;SDS011;39787;53.174;5.798;2023-07-13T05:09:19;16.20;;;2.47;;
53871;SDS011;39787;53.174;5.798;2023-07-13T05:10:20;11.20;;;2.53;;
53871;SDS011;39787;53.174;5.798;2023-07-13T05:11:21;11.05;;;2.63;;
53871;SDS011;39787;53.174;5.798;2023-07-13T05:12:21;9.90;;;2.23;;
53871;SDS011;39787;53.174;5.798;2023-07-13T05:13:22;9.57;;;2.80;;
53871;SDS011;39787;53.174;5.798;2023-07-13T05:14:23;7.10;;;2.50;;
53871;SDS011;39787;53.174;5.798;2023-07-13T05:15:23;14.03;;;2.87;;
53871;SDS011;39787;53.174;5.798;2023-07-13T05:16:24;9.33;;;2.83;;
53871;SDS011;39787;53.174;5.798;2023-07-13T05:17:24;9.10;;;2.67;;
53871;SDS011;39787;53.174;5.798;2023-07-13T05:18:25;10.43;;;4.00;;
53871;SDS011;39787;53.174;5.798;2023-07-13T05:19:26;10.30;;;2.35;;
53871;SDS011;39787;53.174;5.798;2023-07-13T05:20:26;6.77;;;1.87;;
53871;SDS011;39787;53.174;5.798;2023-07-13T05:21:27;6.77;;;2.23;;
53871;SDS011;39787;53.174;5.798;2023-07-13T05:22:27;8.70;;;2.63;;
53871;SDS011;39787;53.174;5.798;2023-07-13T05:23:28;8.60;;;2.47;;
53871;SDS011;39787;53.174;5.798;2023-07-13T05:24:29;10.25;;;2.00;;
53871;SDS011;39787;53.174;5.798;2023-07-13T05:25:30;8.18;;;2.30;;
53871;SDS011;39787;53.174;5.798;2023-07-13T05:26:31;8.07;;;2.53;;
53871;SDS011;39787;53.174;5.798;2023-07-13T05:27:31;11.50;;;2.70;;
53871;SDS011;39787;53.174;5.798;2023-07-13T05:28:32;7.10;;;2.10;;
53871;SDS011;39787;53.174;5.798;2023-07-13T05:29:32;9.17;;;2.47;;
53871;SDS011;39787;53.174;5.798;2023-07-13T05:30:33;10.93;;;2.90;;
53871;SDS011;39787;53.174;5.798;2023-07-13T05:31:33;9.87;;;2.00;;
53871;SDS011;39787;53.174;5.798;2023-07-13T05:32:34;9.53;;;2.23;;
53871;SDS011;39787;53.174;5.798;2023-07-13T05:33:34;8.40;;;1.90;;
53871;SDS011;39787;53.174;5.798;2023-07-13T05:34:35;8.13;;;2.20;;
53871;SDS011;39787;53.174;5.798;2023-07-13T05:35:35;7.07;;;2.00;;
53871;SDS011;39787;53.174;5.798;2023-07-13T05:36:36;10.05;;;2.33;;
53871;SDS011;39787;53.174;5.798;2023-07-13T05:37:37;8.47;;;1.67;;
53871;SDS011;39787;53.174;5.798;2023-07-13T05:38:37;9.02;;;2.10;;
53871;SDS011;39787;53.174;5.798;2023-07-13T05:39:38;5.27;;;2.33;;
53871;SDS011;39787;53.174;5.798;2023-07-13T05:40:38;9.50;;;2.27;;
53871;SDS011;39787;53.174;5.798;2023-07-13T05:41:39;5.65;;;1.42;;
53871;SDS011;39787;53.174;5.798;2023-07-13T05:42:40;7.40;;;2.20;;
53871;SDS011;39787;53.174;5.798;2023-07-13T05:43:40;7.10;;;1.80;;
53871;SDS011;39787;53.174;5.798;2023-07-13T05:44:41;5.27;;;1.73;;
53871;SDS011;39787;53.174;5.798;2023-07-13T05:45:41;8.80;;;1.87;;
53871;SDS011;39787;53.174;5.798;2023-07-13T05:46:42;4.83;;;1.70;;
53871;SDS011;39787;53.174;5.798;2023-07-13T05:47:42;6.50;;;2.00;;
53871;SDS011;39787;53.174;5.798;2023-07-13T05:48:43;6.17;;;1.90;;
53871;SDS011;39787;53.174;5.798;2023-07-13T05:49:43;7.03;;;1.87;;
53871;SDS011;39787;53.174;5.798;2023-07-13T05:50:44;10.03;;;2.63;;
53871;SDS011;39787;53.174;5.798;2023-07-13T05:51:44;9.80;;;1.60;;
53871;SDS011;39787;53.174;5.798;2023-07-13T05:52:44;4.93;;;2.00;;
53871;SDS011;39787;53.174;5.798;2023-07-13T05:53:45;4.90;;;1.77;;
53871;SDS011;39787;53.174;5.798;2023-07-13T05:54:45;12.23;;;2.27;;
53871;SDS011;39787;53.174;5.798;2023-07-13T05:55:46;7.60;;;1.80;;
53871;SDS011;39787;53.174;5.798;2023-07-13T05:56:47;5.63;;;1.60;;
53871;SDS011;39787;53.174;5.798;2023-07-13T05:57:47;7.10;;;2.03;;
53871;SDS011;39787;53.174;5.798;2023-07-13T05:58:48;5.40;;;2.13;;
53871;SDS011;39787;53.174;5.798;2023-07-13T05:59:49;6.80;;;1.40;;
53871;SDS011;39787;53.174;5.798;2023-07-13T06:00:57;3.77;;;1.50;;
53871;SDS011;39787;53.174;5.798;2023-07-13T06:02:03;4.10;;;1.70;;
53871;SDS011;39787;53.174;5.798;2023-07-13T06:03:04;4.00;;;1.60;;
53871;SDS011;39787;53.174;5.798;2023-07-13T06:05:06;6.82;;;2.22;;
53871;SDS011;39787;53.174;5.798;2023-07-13T06:06:07;7.85;;;1.33;;
53871;SDS011;39787;53.174;5.798;2023-07-13T06:07:09;7.97;;;1.50;;
53871;SDS011;39787;53.174;5.798;2023-07-13T06:08:10;4.83;;;1.60;;
53871;SDS011;39787;53.174;5.798;2023-07-13T06:09:10;7.00;;;1.43;;
53871;SDS011;39787;53.174;5.798;2023-07-13T06:10:11;4.10;;;1.27;;
53871;SDS011;39787;53.174;5.798;2023-07-13T06:11:16;8.00;;;1.63;;
53871;SDS011;39787;53.174;5.798;2023-07-13T06:12:21;6.53;;;1.40;;